HEAX/ALY METAR and TAF weather

Enter ICAO airport designator
Station Type Date Time Source
HEAX METAR 2022/06/27 08:00 UTC NOAA

HEAX 270800Z 32012KT CAVOK 28/20 Q1010 NOSIG


Station Type Date Time Source
HEAX Decoded METAR 2022/06/27 08:00 UTC NOAA

Alexandria / Nouzha, Egypt (HEAX) 31-12N 029-57E 7M
Jun 27, 2022 - 04:00 AM EDT / 2022.06.27 0800 UTC
Wind: from the NW (320 degrees) at 14 MPH (12 KT):0
Visibility: greater than 7 mile(s):0
Temperature: 82 F (28 C)
Dew Point: 68 F (20 C)
Relative Humidity: 61%
Pressure (altimeter): 29.83 in. Hg (1010 hPa)
ob: HEAX 270800Z 32012KT CAVOK 28/20 Q1010 NOSIG
cycle: 8

Station Type Date Time Source
HEAX TAF 2022/06/27 06:54 UTC NOAA

TAF TAF HEAX 270500Z 2706/2812 31011KT 9999 FEW020

Example: see airport list